Terminal Aerodrome Forecast
Issued by NWS

Home | Current Version | Previous Version | Text Only | Print | Product List | Glossary On
Versions: 1 2 3 4 5 6 7 8 9 10 11 12 13 14 15 16 17 18 19
000
FTUS44 KBMX 302320
TAFMGM
TAF
KMGM 302320Z 3100/3124 VRB04KT P6SM BKN050
     FM310200 00000KT P6SM BKN100
     FM310600 VRB03KT P6SM BKN015
      TEMPO 3108/3112 3SM BR BKN007
     FM311800 35004KT P6SM BKN050=

USA.gov is the U.S. government's official web portal to all federal, state and local government web resources and services.